sensor_id;sensor_type;location;lat;lon;timestamp;P1;durP1;ratioP1;P2;durP2;ratioP2
74448;SDS011;62878;51.026;4.472;2022-12-15T00:00:39;30.67;;;18.42;;
74448;SDS011;62878;51.026;4.472;2022-12-15T00:03:23;34.80;;;19.75;;
74448;SDS011;62878;51.026;4.472;2022-12-15T00:06:07;38.25;;;18.90;;
74448;SDS011;62878;51.026;4.472;2022-12-15T00:08:51;35.28;;;19.70;;
74448;SDS011;62878;51.026;4.472;2022-12-15T00:11:35;36.80;;;18.52;;
74448;SDS011;62878;51.026;4.472;2022-12-15T00:14:19;31.75;;;18.55;;
74448;SDS011;62878;51.026;4.472;2022-12-15T00:17:03;36.72;;;18.80;;
74448;SDS011;62878;51.026;4.472;2022-12-15T00:19:47;34.50;;;18.25;;
74448;SDS011;62878;51.026;4.472;2022-12-15T00:22:30;36.72;;;19.30;;
74448;SDS011;62878;51.026;4.472;2022-12-15T00:25:14;37.80;;;20.20;;
74448;SDS011;62878;51.026;4.472;2022-12-15T00:27:58;36.45;;;20.80;;
74448;SDS011;62878;51.026;4.472;2022-12-15T00:30:42;30.23;;;17.58;;
74448;SDS011;62878;51.026;4.472;2022-12-15T00:33:26;32.42;;;19.13;;
74448;SDS011;62878;51.026;4.472;2022-12-15T00:36:10;30.83;;;17.92;;
74448;SDS011;62878;51.026;4.472;2022-12-15T00:38:54;32.08;;;19.23;;
74448;SDS011;62878;51.026;4.472;2022-12-15T00:41:19;34.25;;;19.13;;
74448;SDS011;62878;51.026;4.472;2022-12-15T00:43:45;31.20;;;18.17;;
74448;SDS011;62878;51.026;4.472;2022-12-15T00:46:10;35.22;;;18.58;;
74448;SDS011;62878;51.026;4.472;2022-12-15T00:48:54;33.95;;;18.42;;
74448;SDS011;62878;51.026;4.472;2022-12-15T00:51:20;35.97;;;20.63;;
74448;SDS011;62878;51.026;4.472;2022-12-15T00:53:46;36.22;;;20.25;;
74448;SDS011;62878;51.026;4.472;2022-12-15T00:56:30;31.90;;;18.52;;
74448;SDS011;62878;51.026;4.472;2022-12-15T00:59:14;32.73;;;19.33;;
74448;SDS011;62878;51.026;4.472;2022-12-15T01:01:59;34.80;;;19.23;;
74448;SDS011;62878;51.026;4.472;2022-12-15T01:04:44;34.35;;;18.60;;
74448;SDS011;62878;51.026;4.472;2022-12-15T01:07:28;34.92;;;18.60;;
74448;SDS011;62878;51.026;4.472;2022-12-15T01:10:12;29.35;;;17.38;;
74448;SDS011;62878;51.026;4.472;2022-12-15T01:12:56;32.83;;;18.40;;
74448;SDS011;62878;51.026;4.472;2022-12-15T01:15:40;31.80;;;19.88;;
74448;SDS011;62878;51.026;4.472;2022-12-15T01:18:24;31.92;;;19.92;;
74448;SDS011;62878;51.026;4.472;2022-12-15T01:21:09;32.10;;;18.45;;
74448;SDS011;62878;51.026;4.472;2022-12-15T01:23:36;31.55;;;18.48;;
74448;SDS011;62878;51.026;4.472;2022-12-15T01:26:04;36.45;;;18.83;;
74448;SDS011;62878;51.026;4.472;2022-12-15T01:28:30;32.25;;;19.25;;
74448;SDS011;62878;51.026;4.472;2022-12-15T01:30:56;36.92;;;20.45;;
74448;SDS011;62878;51.026;4.472;2022-12-15T01:33:21;33.70;;;18.60;;
74448;SDS011;62878;51.026;4.472;2022-12-15T01:36:08;33.05;;;17.60;;
74448;SDS011;62878;51.026;4.472;2022-12-15T01:38:33;32.88;;;19.05;;
74448;SDS011;62878;51.026;4.472;2022-12-15T01:41:03;32.13;;;19.70;;
74448;SDS011;62878;51.026;4.472;2022-12-15T01:43:33;33.05;;;18.98;;
74448;SDS011;62878;51.026;4.472;2022-12-15T01:46:13;35.50;;;18.38;;
74448;SDS011;62878;51.026;4.472;2022-12-15T01:51:39;32.08;;;18.08;;
74448;SDS011;62878;51.026;4.472;2022-12-15T01:54:14;36.67;;;18.60;;
74448;SDS011;62878;51.026;4.472;2022-12-15T01:56:44;31.80;;;18.83;;
74448;SDS011;62878;51.026;4.472;2022-12-15T01:59:13;36.53;;;19.08;;
74448;SDS011;62878;51.026;4.472;2022-12-15T02:01:41;33.88;;;18.75;;
74448;SDS011;62878;51.026;4.472;2022-12-15T02:04:07;37.25;;;19.17;;
74448;SDS011;62878;51.026;4.472;2022-12-15T02:06:32;27.85;;;17.52;;
74448;SDS011;62878;51.026;4.472;2022-12-15T02:08:59;30.73;;;17.20;;
74448;SDS011;62878;51.026;4.472;2022-12-15T02:14:06;29.70;;;17.35;;
74448;SDS011;62878;51.026;4.472;2022-12-15T02:30:54;30.77;;;17.75;;
74448;SDS011;62878;51.026;4.472;2022-12-15T02:33:51;25.85;;;15.55;;
74448;SDS011;62878;51.026;4.472;2022-12-15T02:36:36;27.70;;;16.70;;
74448;SDS011;62878;51.026;4.472;2022-12-15T02:39:05;28.02;;;16.73;;
74448;SDS011;62878;51.026;4.472;2022-12-15T02:41:38;28.27;;;15.30;;
74448;SDS011;62878;51.026;4.472;2022-12-15T02:44:09;30.45;;;17.05;;
74448;SDS011;62878;51.026;4.472;2022-12-15T02:46:44;30.77;;;17.00;;
74448;SDS011;62878;51.026;4.472;2022-12-15T03:00:40;28.88;;;16.10;;
74448;SDS011;62878;51.026;4.472;2022-12-15T03:03:09;26.52;;;15.68;;
74448;SDS011;62878;51.026;4.472;2022-12-15T03:05:35;29.02;;;15.88;;
74448;SDS011;62878;51.026;4.472;2022-12-15T03:08:01;25.05;;;16.00;;
74448;SDS011;62878;51.026;4.472;2022-12-15T03:10:26;27.30;;;16.58;;
74448;SDS011;62878;51.026;4.472;2022-12-15T03:12:52;27.48;;;15.77;;
74448;SDS011;62878;51.026;4.472;2022-12-15T03:15:18;24.95;;;14.98;;
74448;SDS011;62878;51.026;4.472;2022-12-15T03:17:44;30.10;;;15.93;;
74448;SDS011;62878;51.026;4.472;2022-12-15T03:20:10;22.52;;;15.77;;
74448;SDS011;62878;51.026;4.472;2022-12-15T03:22:36;27.00;;;15.95;;
74448;SDS011;62878;51.026;4.472;2022-12-15T03:25:02;22.55;;;14.07;;
74448;SDS011;62878;51.026;4.472;2022-12-15T03:27:28;27.55;;;15.15;;
74448;SDS011;62878;51.026;4.472;2022-12-15T03:29:53;26.92;;;15.88;;
74448;SDS011;62878;51.026;4.472;2022-12-15T03:32:18;24.40;;;15.35;;
74448;SDS011;62878;51.026;4.472;2022-12-15T03:34:44;28.42;;;15.35;;
74448;SDS011;62878;51.026;4.472;2022-12-15T03:37:09;23.25;;;15.00;;
74448;SDS011;62878;51.026;4.472;2022-12-15T03:39:35;23.52;;;14.55;;
74448;SDS011;62878;51.026;4.472;2022-12-15T03:42:00;25.45;;;14.57;;
74448;SDS011;62878;51.026;4.472;2022-12-15T03:44:25;24.80;;;14.27;;
74448;SDS011;62878;51.026;4.472;2022-12-15T03:46:50;26.15;;;13.80;;
74448;SDS011;62878;51.026;4.472;2022-12-15T03:49:16;27.20;;;14.80;;
74448;SDS011;62878;51.026;4.472;2022-12-15T03:51:41;23.02;;;14.63;;
74448;SDS011;62878;51.026;4.472;2022-12-15T03:54:06;32.83;;;18.17;;
74448;SDS011;62878;51.026;4.472;2022-12-15T03:56:32;30.45;;;18.58;;
74448;SDS011;62878;51.026;4.472;2022-12-15T03:58:58;29.40;;;16.90;;
74448;SDS011;62878;51.026;4.472;2022-12-15T04:01:27;26.13;;;15.48;;
74448;SDS011;62878;51.026;4.472;2022-12-15T04:03:53;28.27;;;15.40;;
74448;SDS011;62878;51.026;4.472;2022-12-15T04:06:19;32.50;;;15.98;;
74448;SDS011;62878;51.026;4.472;2022-12-15T04:08:44;29.08;;;15.57;;
74448;SDS011;62878;51.026;4.472;2022-12-15T04:11:10;28.17;;;15.20;;
74448;SDS011;62878;51.026;4.472;2022-12-15T04:13:35;25.38;;;14.25;;
74448;SDS011;62878;51.026;4.472;2022-12-15T04:16:01;25.58;;;15.07;;
74448;SDS011;62878;51.026;4.472;2022-12-15T04:18:26;24.63;;;14.52;;
74448;SDS011;62878;51.026;4.472;2022-12-15T04:20:52;22.33;;;12.90;;
74448;SDS011;62878;51.026;4.472;2022-12-15T04:23:17;24.48;;;13.80;;
74448;SDS011;62878;51.026;4.472;2022-12-15T04:25:42;24.20;;;13.38;;
74448;SDS011;62878;51.026;4.472;2022-12-15T04:28:27;26.67;;;13.88;;
74448;SDS011;62878;51.026;4.472;2022-12-15T04:31:11;25.63;;;14.02;;
74448;SDS011;62878;51.026;4.472;2022-12-15T04:34:01;20.77;;;12.38;;
74448;SDS011;62878;51.026;4.472;2022-12-15T04:36:48;24.30;;;14.40;;
74448;SDS011;62878;51.026;4.472;2022-12-15T04:39:36;22.77;;;12.80;;
74448;SDS011;62878;51.026;4.472;2022-12-15T04:42:22;23.73;;;13.32;;
74448;SDS011;62878;51.026;4.472;2022-12-15T04:45:07;24.38;;;13.68;;
74448;SDS011;62878;51.026;4.472;2022-12-15T04:47:51;23.25;;;14.15;;
74448;SDS011;62878;51.026;4.472;2022-12-15T04:50:35;24.98;;;13.95;;
74448;SDS011;62878;51.026;4.472;2022-12-15T04:53:20;21.23;;;12.55;;
74448;SDS011;62878;51.026;4.472;2022-12-15T04:56:08;21.25;;;13.35;;
74448;SDS011;62878;51.026;4.472;2022-12-15T04:58:56;24.75;;;12.30;;
74448;SDS011;62878;51.026;4.472;2022-12-15T05:01:40;22.10;;;12.88;;
74448;SDS011;62878;51.026;4.472;2022-12-15T05:04:24;20.15;;;12.90;;
74448;SDS011;62878;51.026;4.472;2022-12-15T05:07:08;25.40;;;13.10;;
74448;SDS011;62878;51.026;4.472;2022-12-15T05:09:52;23.48;;;12.35;;
74448;SDS011;62878;51.026;4.472;2022-12-15T05:12:36;19.77;;;12.38;;
74448;SDS011;62878;51.026;4.472;2022-12-15T05:15:20;23.50;;;13.23;;
74448;SDS011;62878;51.026;4.472;2022-12-15T05:18:04;21.73;;;11.65;;
74448;SDS011;62878;51.026;4.472;2022-12-15T05:20:47;21.58;;;12.27;;
74448;SDS011;62878;51.026;4.472;2022-12-15T05:23:31;21.23;;;13.15;;
74448;SDS011;62878;51.026;4.472;2022-12-15T05:26:15;21.40;;;12.02;;
74448;SDS011;62878;51.026;4.472;2022-12-15T05:28:59;21.45;;;12.13;;
74448;SDS011;62878;51.026;4.472;2022-12-15T05:31:43;22.55;;;12.85;;
74448;SDS011;62878;51.026;4.472;2022-12-15T05:34:27;19.50;;;11.77;;
74448;SDS011;62878;51.026;4.472;2022-12-15T05:36:54;21.10;;;13.07;;
74448;SDS011;62878;51.026;4.472;2022-12-15T05:39:21;19.33;;;11.70;;
74448;SDS011;62878;51.026;4.472;2022-12-15T05:41:48;20.27;;;11.70;;
74448;SDS011;62878;51.026;4.472;2022-12-15T05:44:14;21.70;;;11.85;;
74448;SDS011;62878;51.026;4.472;2022-12-15T05:46:39;19.88;;;12.25;;
74448;SDS011;62878;51.026;4.472;2022-12-15T05:49:05;19.77;;;11.18;;
74448;SDS011;62878;51.026;4.472;2022-12-15T05:51:32;17.30;;;10.43;;
74448;SDS011;62878;51.026;4.472;2022-12-15T05:53:58;19.75;;;11.43;;
74448;SDS011;62878;51.026;4.472;2022-12-15T05:56:24;18.13;;;11.13;;
74448;SDS011;62878;51.026;4.472;2022-12-15T05:58:51;22.98;;;12.20;;
74448;SDS011;62878;51.026;4.472;2022-12-15T06:01:17;20.52;;;11.25;;
74448;SDS011;62878;51.026;4.472;2022-12-15T06:03:43;18.85;;;10.93;;
74448;SDS011;62878;51.026;4.472;2022-12-15T06:06:10;18.50;;;11.15;;
74448;SDS011;62878;51.026;4.472;2022-12-15T06:08:37;21.60;;;10.82;;
74448;SDS011;62878;51.026;4.472;2022-12-15T06:11:03;17.65;;;11.02;;
74448;SDS011;62878;51.026;4.472;2022-12-15T06:13:29;18.42;;;11.32;;
74448;SDS011;62878;51.026;4.472;2022-12-15T06:16:00;21.75;;;11.55;;
74448;SDS011;62878;51.026;4.472;2022-12-15T06:18:29;19.38;;;11.30;;
74448;SDS011;62878;51.026;4.472;2022-12-15T06:20:58;19.35;;;11.30;;
74448;SDS011;62878;51.026;4.472;2022-12-15T06:23:25;20.50;;;11.77;;
74448;SDS011;62878;51.026;4.472;2022-12-15T06:25:51;21.38;;;11.02;;
74448;SDS011;62878;51.026;4.472;2022-12-15T06:28:17;20.95;;;11.77;;
74448;SDS011;62878;51.026;4.472;2022-12-15T06:30:47;22.92;;;11.63;;
74448;SDS011;62878;51.026;4.472;2022-12-15T06:33:14;23.52;;;10.98;;
74448;SDS011;62878;51.026;4.472;2022-12-15T06:35:39;18.27;;;10.57;;
74448;SDS011;62878;51.026;4.472;2022-12-15T06:38:04;21.13;;;10.98;;
74448;SDS011;62878;51.026;4.472;2022-12-15T06:40:30;19.63;;;10.52;;
74448;SDS011;62878;51.026;4.472;2022-12-15T06:42:55;18.92;;;10.35;;
74448;SDS011;62878;51.026;4.472;2022-12-15T06:45:20;18.95;;;10.95;;
74448;SDS011;62878;51.026;4.472;2022-12-15T06:47:47;19.08;;;11.10;;
74448;SDS011;62878;51.026;4.472;2022-12-15T06:50:12;18.83;;;10.88;;
74448;SDS011;62878;51.026;4.472;2022-12-15T06:52:38;23.92;;;13.25;;
74448;SDS011;62878;51.026;4.472;2022-12-15T06:55:03;20.17;;;11.43;;
74448;SDS011;62878;51.026;4.472;2022-12-15T06:57:29;19.60;;;12.27;;
74448;SDS011;62878;51.026;4.472;2022-12-15T06:59:54;20.30;;;12.15;;
74448;SDS011;62878;51.026;4.472;2022-12-15T07:02:19;21.60;;;11.68;;
74448;SDS011;62878;51.026;4.472;2022-12-15T07:04:45;20.23;;;12.55;;
74448;SDS011;62878;51.026;4.472;2022-12-15T07:07:10;24.45;;;13.05;;
74448;SDS011;62878;51.026;4.472;2022-12-15T07:09:35;21.45;;;12.00;;
74448;SDS011;62878;51.026;4.472;2022-12-15T07:12:01;21.77;;;11.63;;
74448;SDS011;62878;51.026;4.472;2022-12-15T07:14:26;25.92;;;13.00;;
74448;SDS011;62878;51.026;4.472;2022-12-15T07:16:51;23.55;;;14.65;;
74448;SDS011;62878;51.026;4.472;2022-12-15T07:19:17;22.67;;;13.27;;
74448;SDS011;62878;51.026;4.472;2022-12-15T07:21:42;24.27;;;13.43;;
74448;SDS011;62878;51.026;4.472;2022-12-15T07:24:09;25.13;;;13.65;;
74448;SDS011;62878;51.026;4.472;2022-12-15T07:26:36;23.48;;;12.70;;
74448;SDS011;62878;51.026;4.472;2022-12-15T07:29:01;25.63;;;13.65;;
74448;SDS011;62878;51.026;4.472;2022-12-15T07:31:28;22.85;;;13.60;;
74448;SDS011;62878;51.026;4.472;2022-12-15T07:33:55;20.95;;;12.10;;
74448;SDS011;62878;51.026;4.472;2022-12-15T07:36:21;22.15;;;13.02;;
74448;SDS011;62878;51.026;4.472;2022-12-15T07:38:47;22.50;;;13.82;;
74448;SDS011;62878;51.026;4.472;2022-12-15T07:41:12;20.00;;;12.00;;
74448;SDS011;62878;51.026;4.472;2022-12-15T07:43:37;20.75;;;11.82;;
74448;SDS011;62878;51.026;4.472;2022-12-15T07:46:03;22.00;;;12.68;;
74448;SDS011;62878;51.026;4.472;2022-12-15T07:48:30;23.52;;;13.90;;
74448;SDS011;62878;51.026;4.472;2022-12-15T07:50:56;20.23;;;12.05;;
74448;SDS011;62878;51.026;4.472;2022-12-15T07:53:25;36.17;;;13.00;;
74448;SDS011;62878;51.026;4.472;2022-12-15T07:55:58;40.83;;;19.45;;
74448;SDS011;62878;51.026;4.472;2022-12-15T07:58:25;34.75;;;18.15;;
74448;SDS011;62878;51.026;4.472;2022-12-15T08:00:52;27.50;;;18.00;;
74448;SDS011;62878;51.026;4.472;2022-12-15T08:03:17;33.28;;;15.95;;
74448;SDS011;62878;51.026;4.472;2022-12-15T08:05:43;28.83;;;16.75;;
74448;SDS011;62878;51.026;4.472;2022-12-15T08:08:08;29.20;;;15.98;;
74448;SDS011;62878;51.026;4.472;2022-12-15T08:10:37;29.40;;;14.52;;
74448;SDS011;62878;51.026;4.472;2022-12-15T08:13:02;23.88;;;14.77;;
74448;SDS011;62878;51.026;4.472;2022-12-15T08:15:28;21.05;;;12.23;;
74448;SDS011;62878;51.026;4.472;2022-12-15T08:17:53;23.98;;;14.35;;
74448;SDS011;62878;51.026;4.472;2022-12-15T08:20:18;23.77;;;12.30;;
74448;SDS011;62878;51.026;4.472;2022-12-15T08:22:44;24.75;;;13.95;;
74448;SDS011;62878;51.026;4.472;2022-12-15T08:25:09;19.33;;;13.25;;
74448;SDS011;62878;51.026;4.472;2022-12-15T08:27:34;20.52;;;12.88;;
74448;SDS011;62878;51.026;4.472;2022-12-15T08:30:00;25.55;;;12.88;;
74448;SDS011;62878;51.026;4.472;2022-12-15T08:32:25;24.60;;;13.10;;
74448;SDS011;62878;51.026;4.472;2022-12-15T08:34:50;20.10;;;12.68;;
74448;SDS011;62878;51.026;4.472;2022-12-15T08:37:16;23.30;;;13.30;;
74448;SDS011;62878;51.026;4.472;2022-12-15T08:39:41;21.67;;;13.00;;
74448;SDS011;62878;51.026;4.472;2022-12-15T08:42:06;21.23;;;12.85;;
74448;SDS011;62878;51.026;4.472;2022-12-15T08:44:32;22.17;;;13.13;;
74448;SDS011;62878;51.026;4.472;2022-12-15T08:46:57;20.73;;;13.05;;
74448;SDS011;62878;51.026;4.472;2022-12-15T08:49:23;22.00;;;13.50;;
74448;SDS011;62878;51.026;4.472;2022-12-15T08:51:48;18.38;;;12.88;;
74448;SDS011;62878;51.026;4.472;2022-12-15T08:54:14;20.38;;;13.38;;
74448;SDS011;62878;51.026;4.472;2022-12-15T08:56:39;18.70;;;11.85;;
74448;SDS011;62878;51.026;4.472;2022-12-15T08:59:04;21.20;;;12.95;;
74448;SDS011;62878;51.026;4.472;2022-12-15T09:01:31;25.60;;;12.73;;
74448;SDS011;62878;51.026;4.472;2022-12-15T09:03:58;20.40;;;12.63;;
74448;SDS011;62878;51.026;4.472;2022-12-15T09:06:27;23.25;;;12.40;;
74448;SDS011;62878;51.026;4.472;2022-12-15T09:08:56;23.88;;;13.00;;
74448;SDS011;62878;51.026;4.472;2022-12-15T09:11:25;22.42;;;13.85;;
74448;SDS011;62878;51.026;4.472;2022-12-15T09:13:52;22.88;;;13.73;;
74448;SDS011;62878;51.026;4.472;2022-12-15T09:16:18;21.88;;;12.65;;
74448;SDS011;62878;51.026;4.472;2022-12-15T09:18:48;21.00;;;12.40;;
74448;SDS011;62878;51.026;4.472;2022-12-15T09:21:16;25.80;;;13.50;;
74448;SDS011;62878;51.026;4.472;2022-12-15T09:23:42;20.13;;;12.68;;
74448;SDS011;62878;51.026;4.472;2022-12-15T09:26:08;24.60;;;13.43;;
74448;SDS011;62878;51.026;4.472;2022-12-15T09:28:35;23.05;;;14.27;;
74448;SDS011;62878;51.026;4.472;2022-12-15T09:31:05;24.25;;;13.05;;
74448;SDS011;62878;51.026;4.472;2022-12-15T09:33:32;23.02;;;13.70;;
74448;SDS011;62878;51.026;4.472;2022-12-15T09:35:57;21.67;;;13.50;;
74448;SDS011;62878;51.026;4.472;2022-12-15T09:38:22;27.15;;;13.65;;
74448;SDS011;62878;51.026;4.472;2022-12-15T09:40:48;26.63;;;14.23;;
74448;SDS011;62878;51.026;4.472;2022-12-15T09:43:20;25.75;;;14.43;;
74448;SDS011;62878;51.026;4.472;2022-12-15T09:45:49;24.58;;;13.45;;
74448;SDS011;62878;51.026;4.472;2022-12-15T09:48:22;23.97;;;13.80;;
74448;SDS011;62878;51.026;4.472;2022-12-15T09:50:49;23.88;;;13.68;;
74448;SDS011;62878;51.026;4.472;2022-12-15T09:53:18;24.83;;;14.25;;
74448;SDS011;62878;51.026;4.472;2022-12-15T09:55:50;27.17;;;13.55;;
74448;SDS011;62878;51.026;4.472;2022-12-15T09:58:32;26.90;;;14.68;;
74448;SDS011;62878;51.026;4.472;2022-12-15T10:01:51;27.35;;;14.10;;
74448;SDS011;62878;51.026;4.472;2022-12-15T10:07:11;22.40;;;13.15;;
74448;SDS011;62878;51.026;4.472;2022-12-15T10:09:43;24.90;;;12.77;;
74448;SDS011;62878;51.026;4.472;2022-12-15T10:12:15;20.98;;;12.50;;
74448;SDS011;62878;51.026;4.472;2022-12-15T10:14:50;24.70;;;14.07;;
74448;SDS011;62878;51.026;4.472;2022-12-15T10:22:31;23.55;;;12.85;;
74448;SDS011;62878;51.026;4.472;2022-12-15T10:25:33;20.10;;;12.48;;
74448;SDS011;62878;51.026;4.472;2022-12-15T10:30:39;22.05;;;12.85;;
74448;SDS011;62878;51.026;4.472;2022-12-15T10:33:17;21.38;;;12.40;;
74448;SDS011;62878;51.026;4.472;2022-12-15T10:35:45;21.55;;;11.98;;
74448;SDS011;62878;51.026;4.472;2022-12-15T10:41:00;20.95;;;13.00;;
74448;SDS011;62878;51.026;4.472;2022-12-15T10:43:32;18.17;;;11.43;;
74448;SDS011;62878;51.026;4.472;2022-12-15T10:46:10;24.70;;;13.75;;
74448;SDS011;62878;51.026;4.472;2022-12-15T10:48:39;22.15;;;11.77;;
74448;SDS011;62878;51.026;4.472;2022-12-15T10:51:12;24.05;;;12.75;;
74448;SDS011;62878;51.026;4.472;2022-12-15T10:53:42;20.43;;;11.83;;
74448;SDS011;62878;51.026;4.472;2022-12-15T10:56:13;20.33;;;11.23;;
74448;SDS011;62878;51.026;4.472;2022-12-15T10:58:47;21.58;;;11.63;;
74448;SDS011;62878;51.026;4.472;2022-12-15T11:01:18;18.38;;;11.52;;
74448;SDS011;62878;51.026;4.472;2022-12-15T11:03:51;21.88;;;12.43;;
74448;SDS011;62878;51.026;4.472;2022-12-15T11:06:23;19.20;;;10.98;;
74448;SDS011;62878;51.026;4.472;2022-12-15T11:08:51;20.65;;;11.63;;
74448;SDS011;62878;51.026;4.472;2022-12-15T11:11:25;22.05;;;11.65;;
74448;SDS011;62878;51.026;4.472;2022-12-15T11:14:12;15.90;;;11.02;;
74448;SDS011;62878;51.026;4.472;2022-12-15T11:16:44;21.55;;;11.55;;
74448;SDS011;62878;51.026;4.472;2022-12-15T11:19:13;19.13;;;12.50;;
74448;SDS011;62878;51.026;4.472;2022-12-15T11:21:47;20.60;;;11.77;;
74448;SDS011;62878;51.026;4.472;2022-12-15T11:24:21;18.60;;;11.43;;
74448;SDS011;62878;51.026;4.472;2022-12-15T11:27:32;21.17;;;11.73;;
74448;SDS011;62878;51.026;4.472;2022-12-15T11:32:46;28.98;;;16.15;;
74448;SDS011;62878;51.026;4.472;2022-12-15T11:35:15;25.95;;;16.83;;
74448;SDS011;62878;51.026;4.472;2022-12-15T11:37:59;28.92;;;16.13;;
74448;SDS011;62878;51.026;4.472;2022-12-15T11:40:39;26.60;;;15.60;;
74448;SDS011;62878;51.026;4.472;2022-12-15T11:43:24;26.73;;;14.93;;
74448;SDS011;62878;51.026;4.472;2022-12-15T11:48:46;21.13;;;13.07;;
74448;SDS011;62878;51.026;4.472;2022-12-15T11:51:23;20.70;;;13.00;;
74448;SDS011;62878;51.026;4.472;2022-12-15T11:57:15;21.70;;;13.50;;
74448;SDS011;62878;51.026;4.472;2022-12-15T12:08:33;18.73;;;12.02;;
74448;SDS011;62878;51.026;4.472;2022-12-15T12:16:56;23.50;;;13.30;;
74448;SDS011;62878;51.026;4.472;2022-12-15T12:22:22;20.85;;;12.23;;
74448;SDS011;62878;51.026;4.472;2022-12-15T12:25:02;23.45;;;11.70;;
74448;SDS011;62878;51.026;4.472;2022-12-15T12:27:41;25.65;;;12.80;;
74448;SDS011;62878;51.026;4.472;2022-12-15T12:30:15;19.95;;;12.60;;
74448;SDS011;62878;51.026;4.472;2022-12-15T12:35:33;33.45;;;17.05;;
74448;SDS011;62878;51.026;4.472;2022-12-15T12:43:19;32.85;;;17.77;;
74448;SDS011;62878;51.026;4.472;2022-12-15T12:51:29;25.23;;;13.60;;
74448;SDS011;62878;51.026;4.472;2022-12-15T12:53:57;24.65;;;12.43;;
74448;SDS011;62878;51.026;4.472;2022-12-15T12:56:39;24.92;;;13.27;;
74448;SDS011;62878;51.026;4.472;2022-12-15T13:01:59;21.38;;;11.95;;
74448;SDS011;62878;51.026;4.472;2022-12-15T13:04:38;33.60;;;17.88;;
74448;SDS011;62878;51.026;4.472;2022-12-15T13:12:33;34.65;;;18.73;;
74448;SDS011;62878;51.026;4.472;2022-12-15T13:18:09;33.05;;;16.08;;
74448;SDS011;62878;51.026;4.472;2022-12-15T13:20:39;28.80;;;14.93;;
74448;SDS011;62878;51.026;4.472;2022-12-15T13:25:40;25.90;;;12.52;;
74448;SDS011;62878;51.026;4.472;2022-12-15T13:28:16;26.77;;;13.65;;
74448;SDS011;62878;51.026;4.472;2022-12-15T13:33:42;25.10;;;12.40;;
74448;SDS011;62878;51.026;4.472;2022-12-15T13:36:08;20.30;;;11.73;;
74448;SDS011;62878;51.026;4.472;2022-12-15T13:38:50;24.80;;;12.00;;
74448;SDS011;62878;51.026;4.472;2022-12-15T13:41:21;23.52;;;11.98;;
74448;SDS011;62878;51.026;4.472;2022-12-15T13:43:47;20.80;;;11.18;;
74448;SDS011;62878;51.026;4.472;2022-12-15T13:46:18;19.65;;;10.73;;
74448;SDS011;62878;51.026;4.472;2022-12-15T13:48:50;21.48;;;12.15;;
74448;SDS011;62878;51.026;4.472;2022-12-15T13:53:59;19.40;;;10.50;;
74448;SDS011;62878;51.026;4.472;2022-12-15T13:59:11;18.92;;;11.02;;
74448;SDS011;62878;51.026;4.472;2022-12-15T14:01:50;20.02;;;11.25;;
74448;SDS011;62878;51.026;4.472;2022-12-15T14:04:16;20.05;;;10.48;;
74448;SDS011;62878;51.026;4.472;2022-12-15T14:06:50;16.88;;;10.30;;
74448;SDS011;62878;51.026;4.472;2022-12-15T14:09:19;16.73;;;9.93;;
74448;SDS011;62878;51.026;4.472;2022-12-15T14:11:51;18.23;;;9.90;;
74448;SDS011;62878;51.026;4.472;2022-12-15T14:14:18;19.38;;;11.30;;
74448;SDS011;62878;51.026;4.472;2022-12-15T14:16:50;21.50;;;11.60;;
74448;SDS011;62878;51.026;4.472;2022-12-15T14:19:17;17.40;;;10.48;;
74448;SDS011;62878;51.026;4.472;2022-12-15T14:24:20;16.08;;;10.27;;
74448;SDS011;62878;51.026;4.472;2022-12-15T14:26:48;18.23;;;9.73;;
74448;SDS011;62878;51.026;4.472;2022-12-15T14:29:13;19.15;;;10.90;;
74448;SDS011;62878;51.026;4.472;2022-12-15T14:31:38;18.50;;;9.70;;
74448;SDS011;62878;51.026;4.472;2022-12-15T14:34:09;21.45;;;10.68;;
74448;SDS011;62878;51.026;4.472;2022-12-15T14:36:39;21.50;;;10.48;;
74448;SDS011;62878;51.026;4.472;2022-12-15T14:39:29;18.23;;;10.10;;
74448;SDS011;62878;51.026;4.472;2022-12-15T14:41:57;20.70;;;9.35;;
74448;SDS011;62878;51.026;4.472;2022-12-15T14:44:35;18.67;;;11.40;;
74448;SDS011;62878;51.026;4.472;2022-12-15T14:47:03;17.92;;;10.45;;
74448;SDS011;62878;51.026;4.472;2022-12-15T14:49:32;21.15;;;10.43;;
74448;SDS011;62878;51.026;4.472;2022-12-15T14:52:04;16.70;;;10.07;;
74448;SDS011;62878;51.026;4.472;2022-12-15T14:54:32;19.75;;;9.55;;
74448;SDS011;62878;51.026;4.472;2022-12-15T14:57:24;18.20;;;9.90;;
74448;SDS011;62878;51.026;4.472;2022-12-15T15:00:23;17.63;;;9.95;;
74448;SDS011;62878;51.026;4.472;2022-12-15T15:05:59;29.75;;;16.10;;
74448;SDS011;62878;51.026;4.472;2022-12-15T15:08:28;61.97;;;17.55;;
74448;SDS011;62878;51.026;4.472;2022-12-15T15:10:56;41.42;;;17.55;;
74448;SDS011;62878;51.026;4.472;2022-12-15T15:13:25;36.20;;;15.05;;
74448;SDS011;62878;51.026;4.472;2022-12-15T15:16:00;36.03;;;14.98;;
74448;SDS011;62878;51.026;4.472;2022-12-15T15:18:29;34.83;;;13.85;;
74448;SDS011;62878;51.026;4.472;2022-12-15T15:20:56;31.92;;;14.73;;
74448;SDS011;62878;51.026;4.472;2022-12-15T15:23:24;33.70;;;14.90;;
74448;SDS011;62878;51.026;4.472;2022-12-15T15:25:56;29.48;;;14.43;;
74448;SDS011;62878;51.026;4.472;2022-12-15T15:28:42;27.05;;;12.25;;
74448;SDS011;62878;51.026;4.472;2022-12-15T15:31:24;24.52;;;13.40;;
74448;SDS011;62878;51.026;4.472;2022-12-15T15:33:53;25.90;;;12.40;;
74448;SDS011;62878;51.026;4.472;2022-12-15T15:36:29;21.85;;;11.48;;
74448;SDS011;62878;51.026;4.472;2022-12-15T15:38:56;25.25;;;12.23;;
74448;SDS011;62878;51.026;4.472;2022-12-15T15:41:26;21.55;;;11.70;;
74448;SDS011;62878;51.026;4.472;2022-12-15T15:43:56;19.38;;;10.75;;
74448;SDS011;62878;51.026;4.472;2022-12-15T15:46:27;22.45;;;11.90;;
74448;SDS011;62878;51.026;4.472;2022-12-15T15:48:56;20.25;;;11.45;;
74448;SDS011;62878;51.026;4.472;2022-12-15T15:51:25;18.92;;;10.95;;
74448;SDS011;62878;51.026;4.472;2022-12-15T15:53:54;19.00;;;10.57;;
74448;SDS011;62878;51.026;4.472;2022-12-15T15:56:23;24.50;;;12.73;;
74448;SDS011;62878;51.026;4.472;2022-12-15T15:58:48;21.42;;;11.57;;
74448;SDS011;62878;51.026;4.472;2022-12-15T16:01:13;27.17;;;12.40;;
74448;SDS011;62878;51.026;4.472;2022-12-15T16:03:39;23.98;;;12.20;;
74448;SDS011;62878;51.026;4.472;2022-12-15T16:06:04;16.98;;;10.85;;
74448;SDS011;62878;51.026;4.472;2022-12-15T16:08:35;21.33;;;12.60;;
74448;SDS011;62878;51.026;4.472;2022-12-15T16:11:01;18.17;;;10.45;;
74448;SDS011;62878;51.026;4.472;2022-12-15T16:13:26;19.67;;;11.52;;
74448;SDS011;62878;51.026;4.472;2022-12-15T16:15:52;23.13;;;12.07;;
74448;SDS011;62878;51.026;4.472;2022-12-15T16:18:18;27.25;;;14.95;;
74448;SDS011;62878;51.026;4.472;2022-12-15T16:20:45;21.40;;;12.57;;
74448;SDS011;62878;51.026;4.472;2022-12-15T16:23:16;31.00;;;14.05;;
74448;SDS011;62878;51.026;4.472;2022-12-15T16:25:45;23.80;;;12.48;;
74448;SDS011;62878;51.026;4.472;2022-12-15T16:28:15;21.35;;;12.57;;
74448;SDS011;62878;51.026;4.472;2022-12-15T16:30:43;23.25;;;12.38;;
74448;SDS011;62878;51.026;4.472;2022-12-15T16:33:09;21.33;;;13.13;;
74448;SDS011;62878;51.026;4.472;2022-12-15T16:35:35;25.08;;;12.75;;
74448;SDS011;62878;51.026;4.472;2022-12-15T16:38:02;22.50;;;12.75;;